Terminal Aerodrome Forecast
Issued by NWS

Home | Current Version | Previous Version | Text Only | Print | Product List | Glossary On
Versions: 1 2 3 4 5 6 7 8 9 10 11 12 13 14 15 16 17 18 19 20 21 22 23 24 25 26 27 28 29 30 31 32 33 34 35
000
FTUS46 KOTX 221736
TAFSFF
TAF
KSFF 221736Z 2218/2318 10004KT P6SM VCSH SCT060 OVC080
     FM222200 19010KT P6SM -RA SCT040 OVC080
     FM230700 18007KT 6SM -RA BR SCT020 OVC035 WS015/23040KT
     FM231500 22015KT P6SM SCT030 OVC040=

USA.gov is the U.S. government's official web portal to all federal, state and local government web resources and services.